Time;durP1;ratioP1;P1;durP2;ratioP2;P2;SDS_P1;SDS_P2;PMS_P1;PMS_P2;Temp;Humidity;BMP_temperature;BMP_pressure;BME280_temperature;BME280_humidity;BME280_pressure;Samples;Min_cycle;Max_cycle;Signal;HPM_P1;HPM_P2
2023/05/25 00:01:03;;;;;;;7.82;2.28;;;9.30;99.90;;;;;;5052492;28;20040;-75
2023/05/25 00:03:30;;;;;;;5.18;2.20;;;9.30;99.90;;;;;;5063107;28;20456;-75
2023/05/25 00:05:56;;;;;;;8.38;2.83;;;9.30;99.90;;;;;;5066879;28;20173;-75
2023/05/25 00:08:22;;;;;;;6.55;2.28;;;9.20;99.90;;;;;;5062365;28;20032;-75
2023/05/25 00:10:48;;;;;;;7.28;2.78;;;9.20;99.90;;;;;;5065082;28;20032;-75
2023/05/25 00:13:14;;;;;;;4.43;2.75;;;9.20;99.90;;;;;;5072565;28;20370;-75
2023/05/25 00:15:40;;;;;;;6.50;2.72;;;9.10;99.90;;;;;;5064537;28;20048;-75
2023/05/25 00:18:06;;;;;;;6.95;2.60;;;9.10;99.90;;;;;;5076018;28;20340;-75
2023/05/25 00:20:32;;;;;;;6.95;2.55;;;9.10;99.90;;;;;;5079432;28;20043;-75
2023/05/25 00:22:58;;;;;;;5.15;2.80;;;9.10;99.90;;;;;;5073190;28;20086;-75
2023/05/25 00:25:24;;;;;;;4.47;2.47;;;9.10;99.90;;;;;;5066645;28;20028;-75
2023/05/25 00:27:49;;;;;;;7.10;2.67;;;9.10;99.90;;;;;;5070958;28;20039;-75
2023/05/25 00:30:15;;;;;;;6.85;2.75;;;9.10;99.90;;;;;;5071740;28;20039;-75
2023/05/25 00:32:40;;;;;;;7.68;3.50;;;9.20;99.90;;;;;;5074532;28;20081;-75
2023/05/25 00:35:06;;;;;;;11.02;2.70;;;9.20;99.90;;;;;;5073628;28;20605;-75
2023/05/25 00:37:32;;;;;;;7.45;2.92;;;9.20;99.90;;;;;;5070829;28;20033;-76
2023/05/25 00:39:58;;;;;;;8.15;2.92;;;9.30;99.90;;;;;;5071507;28;20384;-75
2023/05/25 00:42:23;;;;;;;8.75;2.67;;;9.30;99.90;;;;;;5070507;28;20029;-75
2023/05/25 00:44:49;;;;;;;7.50;2.67;;;9.30;99.90;;;;;;5071451;28;20458;-75
2023/05/25 00:47:16;;;;;;;11.75;3.20;;;9.40;99.90;;;;;;5064748;28;20463;-75
2023/05/25 00:49:42;;;;;;;6.57;2.58;;;9.40;99.90;;;;;;5070797;28;20127;-75
2023/05/25 00:52:10;;;;;;;7.35;2.50;;;9.50;99.90;;;;;;5076258;28;20915;-75
2023/05/25 00:54:36;;;;;;;8.45;2.67;;;9.60;99.90;;;;;;5067050;28;20052;-75
2023/05/25 00:57:05;;;;;;;7.05;2.10;;;9.50;99.90;;;;;;5067372;28;20036;-75
2023/05/25 00:59:56;;;;;;;10.07;3.08;;;9.60;99.90;;;;;;5073020;28;20042;-75
2023/05/25 01:02:23;;;;;;;11.25;3.67;;;9.50;99.90;;;;;;5073945;28;20024;-75
2023/05/25 01:04:52;;;;;;;8.25;2.92;;;9.50;99.90;;;;;;5072860;28;20028;-76
2023/05/25 01:07:23;;;;;;;10.63;3.50;;;9.50;99.90;;;;;;5072600;28;20063;-75
2023/05/25 01:09:56;;;;;;;7.03;2.50;;;9.50;99.90;;;;;;5069817;28;20526;-75
2023/05/25 01:12:22;;;;;;;7.65;3.08;;;9.50;99.90;;;;;;5071923;28;20032;-75
2023/05/25 01:14:49;;;;;;;11.38;3.78;;;9.40;99.90;;;;;;5060638;28;20024;-75
2023/05/25 01:17:14;;;;;;;7.10;3.30;;;9.40;99.90;;;;;;5070564;28;20028;-75
2023/05/25 01:19:44;;;;;;;7.78;2.83;;;9.40;99.90;;;;;;5063150;28;20032;-75
2023/05/25 01:22:37;;;;;;;10.43;3.15;;;9.30;99.90;;;;;;5061118;28;20025;-75
2023/05/25 01:25:16;;;;;;;9.15;2.72;;;9.30;99.90;;;;;;5066359;28;20028;-75
2023/05/25 01:27:53;;;;;;;9.87;3.50;;;9.20;99.90;;;;;;5077709;28;20032;-75
2023/05/25 01:30:23;;;;;;;7.70;2.85;;;9.10;99.90;;;;;;5069884;28;20029;-75
2023/05/25 01:32:49;;;;;;;6.47;2.75;;;9.10;99.90;;;;;;5058758;28;20623;-75
2023/05/25 01:35:18;;;;;;;9.57;3.20;;;9.10;99.90;;;;;;5066240;28;20033;-75
2023/05/25 01:37:45;;;;;;;9.90;3.58;;;9.10;99.90;;;;;;5065358;28;20492;-75
2023/05/25 01:40:12;;;;;;;6.43;2.90;;;9.00;99.90;;;;;;5071377;28;20085;-75
2023/05/25 01:42:38;;;;;;;8.27;3.10;;;9.00;99.90;;;;;;5073437;28;20032;-75
2023/05/25 01:45:04;;;;;;;11.32;3.50;;;9.00;99.90;;;;;;5059665;28;20029;-75
2023/05/25 01:47:45;;;;;;;13.77;3.63;;;9.00;99.90;;;;;;5073871;28;20474;-75
2023/05/25 01:50:14;;;;;;;11.20;3.00;;;8.90;99.90;;;;;;5061984;28;20051;-75
2023/05/25 01:52:47;;;;;;;10.32;3.00;;;;;;;;;;5059056;28;20029;-75
2023/05/25 01:55:18;;;;;;;14.45;4.22;;;;;;;;;;5073556;28;20063;-75
2023/05/25 01:57:45;;;;;;;7.75;3.03;;;;;;;;;;5068281;28;20112;-75
2023/05/25 02:00:12;;;;;;;8.05;3.08;;;;;;;;;;5072279;28;20469;-75
2023/05/25 02:02:39;;;;;;;12.95;3.17;;;;;;;;;;5060528;28;20033;-75
2023/05/25 02:05:06;;;;;;;12.95;3.25;;;;;;;;;;5071503;28;20674;-75
2023/05/25 02:07:33;;;;;;;11.18;3.33;;;;;;;;;;5071995;28;20493;-75
2023/05/25 02:09:59;;;;;;;11.40;3.53;;;;;;;;;;5065527;28;20532;-75
2023/05/25 02:12:25;;;;;;;11.77;4.00;;;;;;;;;;5064021;28;20025;-74
2023/05/25 02:14:51;;;;;;;11.75;3.50;;;;;;;;;;5071394;28;20085;-74
2023/05/25 02:17:17;;;;;;;8.30;3.50;;;;;;;;;;5061643;28;20028;-74
2023/05/25 02:19:44;;;;;;;13.95;3.63;;;;;;;;;;5064400;28;20036;-74
2023/05/25 02:22:10;;;;;;;7.13;3.20;;;;;;;;;;5063613;28;20107;-74
2023/05/25 02:24:36;;;;;;;9.77;3.25;;;;;;;;;;5072062;28;20094;-74
2023/05/25 02:27:03;;;;;;;9.60;3.72;;;;;;;;;;5073491;28;20032;-74
2023/05/25 02:29:29;;;;;;;12.55;3.92;;;;;;;;;;5054748;28;20115;-75
2023/05/25 02:31:55;;;;;;;11.38;3.63;;;8.40;99.90;;;;;;5063245;28;20031;-74
2023/05/25 02:34:20;;;;;;;13.45;4.70;;;8.50;99.90;;;;;;5071745;28;20032;-75
2023/05/25 02:36:46;;;;;;;12.80;4.03;;;8.30;99.90;;;;;;5061596;28;20031;-75
2023/05/25 02:39:12;;;;;;;12.57;4.07;;;8.30;99.90;;;;;;5071709;28;20035;-75
2023/05/25 02:41:38;;;;;;;12.75;3.70;;;8.30;99.90;;;;;;5044925;28;20024;-75
2023/05/25 02:44:04;;;;;;;12.90;3.78;;;8.20;99.90;;;;;;5045410;28;20081;-75
2023/05/25 02:46:29;;;;;;;13.25;3.67;;;8.20;99.90;;;;;;5070515;28;20031;-75
2023/05/25 02:48:55;;;;;;;16.50;3.45;;;8.20;99.90;;;;;;5065418;28;20055;-74
2023/05/25 02:51:21;;;;;;;14.13;4.07;;;8.20;99.90;;;;;;5068850;28;20025;-74
2023/05/25 02:53:47;;;;;;;8.38;3.47;;;8.10;99.90;;;;;;5062612;28;20054;-74
2023/05/25 02:56:12;;;;;;;11.80;4.13;;;8.10;99.90;;;;;;5070029;28;20035;-74
2023/05/25 02:58:38;;;;;;;12.10;3.47;;;8.10;99.90;;;;;;5065611;28;20493;-74
2023/05/25 03:01:04;;;;;;;13.95;3.33;;;8.10;99.90;;;;;;5071090;28;20028;-73
2023/05/25 03:03:30;;;;;;;10.35;3.53;;;8.00;99.90;;;;;;5069867;28;20016;-74
2023/05/25 03:05:56;;;;;;;8.18;3.30;;;8.00;99.90;;;;;;5068770;28;20028;-74
2023/05/25 03:08:22;;;;;;;16.55;4.35;;;8.00;99.90;;;;;;5053096;28;20090;-74
2023/05/25 03:10:47;;;;;;;10.07;3.53;;;7.80;99.90;;;;;;5057686;28;20112;-74
2023/05/25 03:13:14;;;;;;;10.38;3.88;;;7.80;99.90;;;;;;5064633;28;20385;-73
2023/05/25 03:15:40;;;;;;;9.48;3.53;;;7.80;99.90;;;;;;5071707;28;20033;-73
2023/05/25 03:18:06;;;;;;;10.35;3.92;;;7.80;99.90;;;;;;5070077;28;20031;-73
2023/05/25 03:20:32;;;;;;;14.40;4.10;;;7.70;99.90;;;;;;5067188;28;20736;-73
2023/05/25 03:22:57;;;;;;;6.22;2.90;;;7.70;99.90;;;;;;5054226;28;20025;-74
2023/05/25 03:25:23;;;;;;;7.18;3.22;;;7.70;99.90;;;;;;5068044;28;20056;-72
2023/05/25 03:27:52;;;;;;;11.43;3.80;;;7.70;99.90;;;;;;5049970;28;20039;-72
2023/05/25 03:30:19;;;;;;;11.33;3.90;;;7.60;99.90;;;;;;5068727;28;20115;-72
2023/05/25 03:32:45;;;;;;;10.93;3.85;;;7.60;99.90;;;;;;5079778;28;20258;-74
2023/05/25 03:35:10;;;;;;;9.65;3.30;;;7.60;99.90;;;;;;5076472;28;20068;-74
2023/05/25 03:37:36;;;;;;;8.23;4.03;;;7.60;99.90;;;;;;5081321;28;20489;-75
2023/05/25 03:40:01;;;;;;;13.63;4.20;;;7.50;99.90;;;;;;5071622;28;20029;-75
2023/05/25 03:42:27;;;;;;;12.07;4.20;;;7.50;99.90;;;;;;5073272;28;20029;-76
2023/05/25 03:44:53;;;;;;;12.13;4.10;;;7.40;99.90;;;;;;5065308;28;20032;-76
2023/05/25 03:47:18;;;;;;;11.48;4.63;;;7.50;99.90;;;;;;5075846;28;20068;-74
2023/05/25 03:49:44;;;;;;;12.93;3.53;;;7.40;99.90;;;;;;5069721;28;20524;-74
2023/05/25 03:52:09;;;;;;;10.73;4.03;;;7.50;99.90;;;;;;5061707;28;20036;-72
2023/05/25 03:54:35;;;;;;;13.43;4.10;;;7.60;99.90;;;;;;5069120;28;20025;-73
2023/05/25 03:57:02;;;;;;;12.20;4.50;;;7.50;99.90;;;;;;5072583;28;20028;-73
2023/05/25 03:59:28;;;;;;;17.02;4.40;;;7.60;99.90;;;;;;5063656;28;20012;-73
2023/05/25 04:01:54;;;;;;;14.25;4.25;;;7.70;99.90;;;;;;5074566;28;20040;-72
2023/05/25 04:04:20;;;;;;;9.18;3.85;;;7.70;99.90;;;;;;5065964;28;20120;-72
2023/05/25 04:06:47;;;;;;;8.27;3.90;;;7.70;99.90;;;;;;5061770;28;20037;-74
2023/05/25 04:09:14;;;;;;;15.73;4.82;;;7.80;99.90;;;;;;5075912;28;20074;-74
2023/05/25 04:11:39;;;;;;;14.73;4.60;;;7.80;99.90;;;;;;5071560;28;20043;-74
2023/05/25 04:14:05;;;;;;;8.48;3.97;;;7.80;99.90;;;;;;5071365;28;20029;-74
2023/05/25 04:16:31;;;;;;;8.30;3.90;;;7.90;99.90;;;;;;5073906;28;20029;-74
2023/05/25 04:18:56;;;;;;;14.75;4.60;;;7.90;99.90;;;;;;5078511;28;20024;-74
2023/05/25 04:21:22;;;;;;;10.52;5.10;;;8.00;99.90;;;;;;5060545;28;20060;-74
2023/05/25 04:23:47;;;;;;;15.13;4.00;;;8.00;99.90;;;;;;5076274;28;20030;-74
2023/05/25 04:26:15;;;;;;;14.02;4.30;;;8.10;99.90;;;;;;5069139;28;20032;-74
2023/05/25 04:28:41;;;;;;;11.02;4.45;;;8.20;99.90;;;;;;5075159;28;20063;-74
2023/05/25 04:31:07;;;;;;;11.32;4.43;;;8.20;99.90;;;;;;5067047;28;20098;-74
2023/05/25 04:33:37;;;;;;;13.23;4.68;;;8.20;99.90;;;;;;5069093;28;20032;-74
2023/05/25 04:36:03;;;;;;;12.33;4.03;;;8.30;99.90;;;;;;5069813;28;20045;-74
2023/05/25 04:38:29;;;;;;;12.65;5.18;;;8.40;99.90;;;;;;5040278;28;20116;-74
2023/05/25 04:40:56;;;;;;;10.80;4.47;;;8.40;99.90;;;;;;5068663;28;20047;-73
2023/05/25 04:43:24;;;;;;;17.33;5.28;;;8.50;99.90;;;;;;5055897;28;20202;-74
2023/05/25 04:45:51;;;;;;;14.02;4.50;;;8.60;99.90;;;;;;5064187;28;20106;-74
2023/05/25 04:48:17;;;;;;;11.35;4.40;;;8.80;99.90;;;;;;5066338;28;20358;-76
2023/05/25 04:50:42;;;;;;;17.27;5.10;;;9.00;99.90;;;;;;5070298;28;20139;-74
2023/05/25 04:53:08;;;;;;;15.68;5.20;;;9.10;99.90;;;;;;5057158;28;20071;-74
2023/05/25 04:55:34;;;;;;;15.00;4.85;;;9.20;99.90;;;;;;5073111;28;20059;-74
2023/05/25 04:58:00;;;;;;;18.50;5.13;;;9.50;99.90;;;;;;5068617;28;20024;-74
2023/05/25 05:00:26;;;;;;;15.70;5.22;;;9.60;99.90;;;;;;5065784;28;20024;-75
2023/05/25 05:02:55;;;;;;;11.45;4.43;;;9.70;99.90;;;;;;5077747;28;20059;-76
2023/05/25 05:05:21;;;;;;;13.18;5.13;;;9.80;99.90;;;;;;5065705;28;20028;-74
2023/05/25 05:07:46;;;;;;;17.90;4.82;;;9.90;99.90;;;;;;5067026;28;20111;-75
2023/05/25 05:10:12;;;;;;;13.88;5.18;;;9.90;99.90;;;;;;5062087;28;20045;-74
2023/05/25 05:12:38;;;;;;;11.55;4.78;;;10.00;99.90;;;;;;5076599;28;20025;-74
2023/05/25 05:15:04;;;;;;;13.35;5.03;;;10.10;99.90;;;;;;5054124;28;20036;-75
2023/05/25 05:17:30;;;;;;;13.93;5.10;;;10.30;99.90;;;;;;5073706;28;20496;-74
2023/05/25 05:19:56;;;;;;;17.73;5.03;;;10.40;99.90;;;;;;5071520;28;20036;-74
2023/05/25 05:22:21;;;;;;;21.73;5.57;;;10.50;99.90;;;;;;5062931;28;20021;-74
2023/05/25 05:24:47;;;;;;;12.93;4.60;;;10.60;99.90;;;;;;5068293;28;20075;-74
2023/05/25 05:27:14;;;;;;;16.85;4.90;;;10.60;99.90;;;;;;5067968;28;20074;-77
2023/05/25 05:29:41;;;;;;;17.17;4.93;;;10.70;99.90;;;;;;5075191;28;20032;-78
2023/05/25 05:32:06;;;;;;;11.80;4.43;;;10.80;99.90;;;;;;5071962;28;20032;-80
2023/05/25 05:34:32;;;;;;;14.48;4.65;;;10.80;99.90;;;;;;5073362;28;20032;-79
2023/05/25 05:37:01;;;;;;;15.32;5.03;;;11.00;99.90;;;;;;5061547;28;20080;-72
2023/05/25 05:39:27;;;;;;;15.70;5.38;;;11.00;99.90;;;;;;5060399;28;20105;-72
2023/05/25 05:41:53;;;;;;;16.40;4.63;;;11.10;99.90;;;;;;5069678;28;20036;-72
2023/05/25 05:44:22;;;;;;;18.10;5.07;;;11.20;99.90;;;;;;5063348;28;20389;-71
2023/05/25 05:46:48;;;;;;;14.63;5.38;;;11.20;99.90;;;;;;5066960;28;20036;-73
2023/05/25 05:49:14;;;;;;;11.73;4.28;;;11.20;99.90;;;;;;5069383;28;20048;-70
2023/05/25 05:51:40;;;;;;;17.83;5.53;;;11.20;99.90;;;;;;5068508;28;20409;-71
2023/05/25 05:54:05;;;;;;;16.83;5.28;;;11.10;99.90;;;;;;5068136;28;20018;-71
2023/05/25 05:56:31;;;;;;;19.77;6.10;;;11.20;99.90;;;;;;5065486;28;20492;-70
2023/05/25 05:58:57;;;;;;;19.40;5.43;;;11.10;99.90;;;;;;5070300;28;20028;-72
2023/05/25 06:01:23;;;;;;;13.20;5.50;;;11.20;99.90;;;;;;5070038;28;20078;-77
2023/05/25 06:03:49;;;;;;;18.55;5.57;;;11.20;99.90;;;;;;5066631;28;20035;-78
2023/05/25 06:06:14;;;;;;;20.48;5.15;;;11.30;99.90;;;;;;5071450;28;20525;-77
2023/05/25 06:08:41;;;;;;;16.60;4.80;;;11.30;99.90;;;;;;5071692;28;20028;-78
2023/05/25 06:11:07;;;;;;;16.02;5.13;;;11.40;99.90;;;;;;5063043;28;20115;-72
2023/05/25 06:13:32;;;;;;;15.13;4.97;;;11.60;99.90;;;;;;5075046;28;20107;-72
2023/05/25 06:15:58;;;;;;;14.23;5.20;;;11.70;99.90;;;;;;5071698;28;20454;-73
2023/05/25 06:18:24;;;;;;;14.68;5.25;;;11.80;99.90;;;;;;5065563;28;20025;-73
2023/05/25 06:20:49;;;;;;;14.68;5.45;;;11.90;99.90;;;;;;5069621;28;20113;-73
2023/05/25 06:23:17;;;;;;;21.00;6.40;;;12.00;99.90;;;;;;5066297;28;20059;-72
2023/05/25 06:25:43;;;;;;;14.85;5.68;;;12.00;99.90;;;;;;5066833;28;20044;-70
2023/05/25 06:28:09;;;;;;;17.33;5.70;;;12.10;99.90;;;;;;5066723;28;20052;-73
2023/05/25 06:30:35;;;;;;;15.48;5.30;;;12.10;99.90;;;;;;5077771;28;20036;-73
2023/05/25 06:33:00;;;;;;;16.67;5.63;;;12.30;99.90;;;;;;5071126;28;20024;-73
2023/05/25 06:35:26;;;;;;;18.92;6.38;;;12.40;99.90;;;;;;5071293;28;20028;-73
2023/05/25 06:37:51;;;;;;;15.25;5.97;;;12.50;99.90;;;;;;5074549;28;20043;-77
2023/05/25 06:40:18;;;;;;;17.60;5.47;;;12.60;99.90;;;;;;5069817;28;20067;-82
2023/05/25 06:42:43;;;;;;;20.85;6.13;;;12.70;99.90;;;;;;5068967;28;20482;-79
2023/05/25 06:45:10;;;;;;;21.90;5.82;;;12.80;99.90;;;;;;5064437;28;20032;-79
2023/05/25 06:47:36;;;;;;;15.20;5.82;;;12.70;99.90;;;;;;5062345;28;20157;-79
2023/05/25 06:50:01;;;;;;;14.80;5.57;;;12.70;99.90;;;;;;5066963;28;20131;-79
2023/05/25 06:52:27;;;;;;;17.92;5.72;;;12.70;99.90;;;;;;5068958;28;20029;-78
2023/05/25 06:54:54;;;;;;;19.23;7.15;;;12.80;99.90;;;;;;5065252;28;20029;-78
2023/05/25 06:57:19;;;;;;;16.23;6.72;;;12.90;99.90;;;;;;5043459;28;20033;-79
2023/05/25 06:59:45;;;;;;;17.08;6.18;;;13.10;99.90;;;;;;5060680;28;20107;-77
2023/05/25 07:02:11;;;;;;;23.30;6.47;;;13.40;99.90;;;;;;5063595;28;20150;-79
2023/05/25 07:04:37;;;;;;;19.67;6.20;;;13.60;99.90;;;;;;5064481;28;20028;-80
2023/05/25 07:07:02;;;;;;;18.20;6.10;;;13.60;99.90;;;;;;5066006;28;20041;-79
2023/05/25 07:09:28;;;;;;;19.13;6.22;;;13.60;99.90;;;;;;5069001;28;20023;-78
2023/05/25 07:11:54;;;;;;;20.92;5.75;;;13.80;99.90;;;;;;5070953;28;20036;-78
2023/05/25 07:14:19;;;;;;;19.77;6.93;;;13.80;99.90;;;;;;5069325;28;20135;-79
2023/05/25 07:16:45;;;;;;;18.63;6.30;;;13.90;99.90;;;;;;5068374;28;20532;-77
2023/05/25 07:19:11;;;;;;;27.75;7.18;;;13.90;99.90;;;;;;5065623;28;20028;-79
2023/05/25 07:21:37;;;;;;;14.60;5.97;;;13.80;99.90;;;;;;5069351;28;20572;-80
2023/05/25 07:24:03;;;;;;;18.17;6.55;;;13.80;99.90;;;;;;5069833;28;20033;-78
2023/05/25 07:26:33;;;;;;;14.50;6.03;;;13.90;99.90;;;;;;5064450;28;20491;-80
2023/05/25 07:28:59;;;;;;;17.70;6.43;;;13.90;99.90;;;;;;5065792;28;20021;-80
2023/05/25 07:31:25;;;;;;;17.52;6.55;;;14.00;99.90;;;;;;5057293;28;20095;-78
2023/05/25 07:33:50;;;;;;;15.23;6.60;;;14.00;99.90;;;;;;5068629;28;20032;-79
2023/05/25 07:36:16;;;;;;;15.85;6.57;;;14.10;99.90;;;;;;5070153;28;20445;-79
2023/05/25 07:38:42;;;;;;;17.98;6.30;;;14.20;99.90;;;;;;5069479;28;20035;-79
2023/05/25 07:41:08;;;;;;;14.38;6.57;;;14.30;99.90;;;;;;5070816;28;20033;-78
2023/05/25 07:43:33;;;;;;;17.80;6.43;;;14.40;99.90;;;;;;5071189;28;20469;-80
2023/05/25 07:46:01;;;;;;;16.70;6.47;;;14.60;99.90;;;;;;5062610;28;20389;-80
2023/05/25 07:48:26;;;;;;;18.05;6.70;;;14.70;99.90;;;;;;5047477;28;20373;-79
2023/05/25 07:50:52;;;;;;;21.60;6.82;;;14.50;99.90;;;;;;5072905;28;20052;-79
2023/05/25 07:53:18;;;;;;;14.27;6.07;;;14.60;99.90;;;;;;5063659;28;20056;-78
2023/05/25 07:55:43;;;;;;;14.68;6.10;;;14.60;99.90;;;;;;5067312;28;20036;-80
2023/05/25 07:58:09;;;;;;;15.68;5.80;;;14.70;99.90;;;;;;5049879;28;20113;-80
2023/05/25 08:00:35;;;;;;;18.63;6.28;;;14.80;99.90;;;;;;5070208;28;20067;-79
2023/05/25 08:03:01;;;;;;;33.17;7.28;;;15.10;99.90;;;;;;5063069;28;20028;-79
2023/05/25 08:05:27;;;;;;;15.00;6.15;;;15.30;99.90;;;;;;5060664;28;20090;-79
2023/05/25 08:07:53;;;;;;;30.92;6.78;;;15.50;99.90;;;;;;5058637;28;20033;-80
2023/05/25 08:10:19;;;;;;;14.30;6.65;;;15.70;99.90;;;;;;5068717;28;20032;-79
2023/05/25 08:12:45;;;;;;;15.60;6.18;;;15.80;99.90;;;;;;5060735;28;20035;-78
2023/05/25 08:15:12;;;;;;;16.20;6.78;;;15.90;99.90;;;;;;5066458;28;20060;-79
2023/05/25 08:17:38;;;;;;;17.42;6.20;;;15.90;99.90;;;;;;5071458;28;20040;-80
2023/05/25 08:20:07;;;;;;;18.25;6.50;;;15.80;99.90;;;;;;5068103;28;20032;-80
2023/05/25 08:22:33;;;;;;;17.23;7.00;;;15.90;99.90;;;;;;5066371;28;20043;-80
2023/05/25 08:24:59;;;;;;;18.25;5.78;;;15.90;99.90;;;;;;5054771;28;20029;-79
2023/05/25 08:27:24;;;;;;;14.05;6.10;;;16.00;99.90;;;;;;5069956;28;20059;-80
2023/05/25 08:29:50;;;;;;;14.70;5.90;;;16.10;99.90;;;;;;5052191;28;20029;-79
2023/05/25 08:32:16;;;;;;;15.13;6.38;;;16.20;99.90;;;;;;5073372;28;20153;-79
2023/05/25 08:34:41;;;;;;;15.07;6.03;;;16.10;99.90;;;;;;5080848;28;20469;-79
2023/05/25 08:37:07;;;;;;;12.73;6.22;;;16.10;99.90;;;;;;5067972;28;20025;-79
2023/05/25 08:39:32;;;;;;;14.43;6.20;;;15.90;99.90;;;;;;5061287;28;20025;-80
2023/05/25 08:41:59;;;;;;;16.25;6.50;;;16.00;99.90;;;;;;5072226;28;20064;-81
2023/05/25 08:44:26;;;;;;;15.20;6.13;;;16.20;99.90;;;;;;5071734;28;20056;-80
2023/05/25 08:46:55;;;;;;;17.55;6.63;;;16.40;99.90;;;;;;5066910;28;20024;-79
2023/05/25 08:49:22;;;;;;;19.55;6.88;;;16.70;99.90;;;;;;5043677;28;20041;-79
2023/05/25 08:51:50;;;;;;;19.50;7.85;;;16.80;99.90;;;;;;5070072;28;20033;-77
2023/05/25 08:54:23;;;;;;;16.40;6.35;;;16.80;99.90;;;;;;5069601;28;20024;-80
2023/05/25 08:56:54;;;;;;;14.73;6.63;;;16.90;99.90;;;;;;5071361;28;20029;-78
2023/05/25 08:59:45;;;;;;;19.80;9.82;;;17.00;99.90;;;;;;5067703;28;20033;-80
2023/05/25 09:02:24;;;;;;;17.50;7.88;;;17.10;99.90;;;;;;5073036;28;20603;-80
2023/05/25 09:04:50;;;;;;;35.85;8.18;;;17.00;99.90;;;;;;5065650;28;20025;-80
2023/05/25 09:07:16;;;;;;;20.30;7.80;;;17.00;99.90;;;;;;5072550;28;20033;-79
2023/05/25 09:09:43;;;;;;;23.67;7.20;;;17.10;99.90;;;;;;5053612;28;20104;-79
2023/05/25 09:12:09;;;;;;;15.77;6.20;;;17.10;99.90;;;;;;5070462;28;20036;-79
2023/05/25 09:14:36;;;;;;;20.23;6.93;;;17.10;99.90;;;;;;5046342;28;20031;-80
2023/05/25 09:17:02;;;;;;;19.20;7.18;;;17.10;99.90;;;;;;5072467;28;20103;-77
2023/05/25 09:19:28;;;;;;;15.60;6.88;;;17.30;99.90;;;;;;5071146;28;20033;-80
2023/05/25 09:21:53;;;;;;;25.20;8.00;;;17.30;99.90;;;;;;5063689;28;20028;-78
2023/05/25 09:24:21;;;;;;;52.67;7.82;;;17.40;99.90;;;;;;5073061;28;20439;-80
2023/05/25 09:26:48;;;;;;;18.85;6.53;;;17.70;99.90;;;;;;5072939;28;20040;-77
2023/05/25 09:29:16;;;;;;;15.85;6.22;;;;;;;;;;5062693;28;20028;-79
2023/05/25 09:31:43;;;;;;;40.83;8.10;;;18.90;99.60;;;;;;5062298;28;20036;-80
2023/05/25 09:34:14;;;;;;;16.33;5.88;;;19.10;99.90;;;;;;5071402;28;20560;-80
2023/05/25 09:36:41;;;;;;;17.40;6.43;;;19.60;99.30;;;;;;5073801;28;20029;-79
2023/05/25 09:39:10;;;;;;;26.98;6.72;;;19.90;98.80;;;;;;5071783;28;20104;-80
2023/05/25 09:41:36;;;;;;;18.58;6.30;;;20.00;98.00;;;;;;5062076;28;20428;-79
2023/05/25 09:44:05;;;;;;;17.25;7.13;;;20.20;97.80;;;;;;5067160;28;20027;-79
2023/05/25 09:46:35;;;;;;;17.20;5.85;;;19.80;97.10;;;;;;5065710;28;20040;-80
2023/05/25 09:49:02;;;;;;;25.80;6.40;;;19.70;97.70;;;;;;5070153;28;20670;-80
2023/05/25 09:51:31;;;;;;;14.68;5.68;;;19.60;97.40;;;;;;5066603;28;20059;-80
2023/05/25 09:53:58;;;;;;;20.05;6.93;;;19.60;97.80;;;;;;5043194;28;20028;-79
2023/05/25 09:56:30;;;;;;;20.00;6.35;;;19.70;97.70;;;;;;5047453;28;20039;-79
2023/05/25 09:58:55;;;;;;;15.70;6.20;;;20.00;97.30;;;;;;5061375;28;20394;-80
2023/05/25 10:01:22;;;;;;;17.60;5.97;;;20.00;98.10;;;;;;5065496;28;20029;-78
2023/05/25 10:03:49;;;;;;;14.77;6.03;;;20.00;97.00;;;;;;5056272;28;20177;-77
2023/05/25 10:06:16;;;;;;;13.15;6.20;;;20.10;96.70;;;;;;5070765;28;20025;-80
2023/05/25 10:08:45;;;;;;;12.43;5.57;;;19.90;96.60;;;;;;5071417;28;20103;-80
2023/05/25 10:11:15;;;;;;;18.73;6.07;;;19.90;97.00;;;;;;5039745;28;20039;-78
2023/05/25 10:13:44;;;;;;;16.50;6.20;;;20.00;96.90;;;;;;5066148;28;20032;-80
2023/05/25 10:16:16;;;;;;;14.93;6.30;;;19.90;96.90;;;;;;5058092;28;20123;-79
2023/05/25 10:19:02;;;;;;;16.42;5.57;;;19.80;96.50;;;;;;5067198;28;20607;-78
2023/05/25 10:21:30;;;;;;;13.77;6.93;;;19.90;96.80;;;;;;5044099;28;20040;-78
2023/05/25 10:24:24;;;;;;;9.98;5.43;;;20.20;96.60;;;;;;5066283;28;20048;-75
2023/05/25 10:26:53;;;;;;;15.00;6.65;;;20.50;96.30;;;;;;5058604;28;20040;-74
2023/05/25 10:29:20;;;;;;;12.73;5.95;;;20.50;95.80;;;;;;5072293;28;20024;-76
2023/05/25 10:31:47;;;;;;;17.75;6.35;;;20.30;96.10;;;;;;5070326;28;20517;-73
2023/05/25 10:34:13;;;;;;;11.15;5.90;;;20.30;96.30;;;;;;5072017;28;20039;-76
2023/05/25 10:36:40;;;;;;;16.63;5.82;;;20.50;95.70;;;;;;5069108;28;20465;-75
2023/05/25 10:39:07;;;;;;;12.57;5.65;;;20.70;95.30;;;;;;5063053;28;20039;-75
2023/05/25 10:41:33;;;;;;;15.55;6.22;;;20.70;95.40;;;;;;5069128;28;20040;-75
2023/05/25 10:43:59;;;;;;;10.85;5.45;;;20.60;95.50;;;;;;5066802;28;20086;-75
2023/05/25 10:46:25;;;;;;;17.02;6.20;;;20.60;95.80;;;;;;5066316;28;20020;-75
2023/05/25 10:48:51;;;;;;;12.75;5.40;;;20.70;95.50;;;;;;5059614;28;20499;-75
2023/05/25 10:51:21;;;;;;;11.80;5.75;;;21.10;95.10;;;;;;5065945;28;20140;-75
2023/05/25 10:53:58;;;;;;;12.10;5.43;;;21.30;95.40;;;;;;5043085;28;20081;-75
2023/05/25 10:56:24;;;;;;;13.52;5.85;;;21.10;95.00;;;;;;5070330;28;20036;-75
2023/05/25 10:58:51;;;;;;;10.52;5.47;;;20.50;95.30;;;;;;5065925;28;20075;-74
2023/05/25 11:01:17;;;;;;;13.13;5.40;;;20.60;95.10;;;;;;5066036;28;20051;-77
2023/05/25 11:03:43;;;;;;;13.02;5.40;;;20.70;95.50;;;;;;5069446;28;20470;-74
2023/05/25 11:06:17;;;;;;;15.43;6.10;;;21.00;95.60;;;;;;5066640;28;20028;-75
2023/05/25 11:08:57;;;;;;;13.38;5.22;;;21.10;95.00;;;;;;5065785;28;20033;-78
2023/05/25 11:11:41;;;;;;;10.25;5.43;;;21.20;94.90;;;;;;5067704;28;20085;-73
2023/05/25 11:14:29;;;;;;;12.20;5.47;;;21.50;94.70;;;;;;5068117;28;20085;-74
2023/05/25 11:17:09;;;;;;;10.88;5.15;;;21.80;94.20;;;;;;5063969;28;20028;-75
2023/05/25 11:19:53;;;;;;;9.80;5.43;;;21.60;93.60;;;;;;5065930;28;20111;-73
2023/05/25 11:22:31;;;;;;;9.43;5.65;;;21.30;93.80;;;;;;5066589;28;20033;-75
2023/05/25 11:24:59;;;;;;;13.38;5.90;;;21.30;94.00;;;;;;5047172;28;20478;-74
2023/05/25 11:27:29;;;;;;;13.10;5.45;;;21.50;94.40;;;;;;5064135;28;20819;-74
2023/05/25 11:29:58;;;;;;;10.65;5.10;;;21.80;94.00;;;;;;5058633;28;20029;-75
2023/05/25 11:32:28;;;;;;;12.27;5.55;;;22.20;94.00;;;;;;5070940;28;20165;-75
2023/05/25 11:34:56;;;;;;;96.25;9.00;;;22.40;93.00;;;;;;5069682;28;20060;-74
2023/05/25 11:37:27;;;;;;;13.60;4.97;;;22.50;92.90;;;;;;5054389;28;20394;-75
2023/05/25 11:39:53;;;;;;;36.47;6.05;;;22.80;92.70;;;;;;5067613;28;20028;-73
2023/05/25 11:42:21;;;;;;;14.30;5.38;;;22.80;92.60;;;;;;5069006;28;20108;-74
2023/05/25 11:44:47;;;;;;;9.00;4.63;;;22.90;91.80;;;;;;5051822;28;20035;-72
2023/05/25 11:47:17;;;;;;;11.98;5.50;;;23.00;91.90;;;;;;5067022;28;20032;-74
2023/05/25 11:49:46;;;;;;;;;;;23.10;91.30;;;;;;5062415;28;20095;-75
2023/05/25 11:52:13;;;;;;;14.00;5.75;;;23.10;91.00;;;;;;5069356;28;19962;-76
2023/05/25 11:54:40;;;;;;;15.38;4.93;;;22.80;90.90;;;;;;5054622;28;20051;-75
2023/05/25 11:57:30;;;;;;;8.65;4.75;;;22.50;91.40;;;;;;5066146;28;20464;-76
2023/05/25 11:59:59;;;;;;;13.82;4.70;;;22.50;91.60;;;;;;5054806;28;20032;-74
2023/05/25 12:02:25;;;;;;;6.97;4.70;;;22.50;91.70;;;;;;5065467;28;20383;-75
2023/05/25 12:04:57;;;;;;;10.75;4.95;;;22.70;91.90;;;;;;5067300;28;20120;-74
2023/05/25 12:07:27;;;;;;;11.68;4.82;;;23.00;90.80;;;;;;5070303;28;20031;-75
2023/05/25 12:10:08;;;;;;;;;;;23.20;91.20;;;;;;5069964;28;20039;-75
2023/05/25 12:12:40;;;;;;;9.90;4.57;;;;;;;;;;5075111;28;19986;-75
2023/05/25 12:15:07;;;;;;;11.23;5.15;;;;;;;;;;5072196;28;20051;-75
2023/05/25 12:17:34;;;;;;;11.35;5.38;;;;;;;;;;5068709;28;20555;-75
2023/05/25 12:20:01;;;;;;;10.98;4.80;;;;;;;;;;5074843;28;20052;-74
2023/05/25 12:22:28;;;;;;;13.02;6.05;;;;;;;;;;5073114;28;20489;-75
2023/05/25 12:24:55;;;;;;;14.15;5.35;;;;;;;;;;5073333;28;20077;-75
2023/05/25 12:27:22;;;;;;;11.98;5.00;;;;;;;;;;5057541;28;20032;-75
2023/05/25 12:29:51;;;;;;;13.93;6.45;;;;;;;;;;5076124;28;20025;-73
2023/05/25 12:32:19;;;;;;;11.23;6.13;;;;;;;;;;5069793;28;20091;-75
2023/05/25 12:34:46;;;;;;;15.25;5.50;;;;;;;;;;5070311;28;20082;-74
2023/05/25 12:37:19;;;;;;;14.85;6.13;;;;;;;;;;5062546;28;20024;-75
2023/05/25 12:39:47;;;;;;;15.52;5.78;;;;;;;;;;5076230;28;20469;-73
2023/05/25 12:42:18;;;;;;;16.08;5.85;;;;;;;;;;5076818;28;20028;-75
2023/05/25 12:44:45;;;;;;;14.88;5.88;;;;;;;;;;5074557;28;20021;-75
2023/05/25 12:47:14;;;;;;;15.27;5.68;;;;;;;;;;5056364;28;20028;-74
2023/05/25 12:49:43;;;;;;;11.68;5.93;;;;;;;;;;5069828;28;20041;-75
2023/05/25 12:52:10;;;;;;;12.05;5.25;;;;;;;;;;5075440;28;20415;-75
2023/05/25 12:54:39;;;;;;;17.73;5.38;;;;;;;;;;5070895;28;20021;-75